createdAt,value
2022-09-30T00:01:41.456Z,97179.03
2022-09-30T00:04:11.424Z,97171.53
2022-09-30T00:06:39.980Z,97174.00
2022-09-30T00:09:11.541Z,97179.03
2022-09-30T00:11:42.320Z,97173.94
2022-09-30T00:14:14.704Z,97178.28
2022-09-30T00:16:43.807Z,97160.56
2022-09-30T00:19:13.868Z,97180.16
2022-09-30T00:21:42.527Z,97164.00
2022-09-30T00:24:11.287Z,97164.91
2022-09-30T00:26:42.088Z,97164.22
2022-09-30T00:29:11.057Z,97164.34
2022-09-30T00:31:39.791Z,97171.84
2022-09-30T00:34:08.943Z,97177.13
2022-09-30T00:36:41.759Z,97170.63
2022-09-30T00:39:11.507Z,97165.69
2022-09-30T00:41:41.678Z,97180.09
2022-09-30T00:44:51.127Z,97181.06
2022-09-30T00:47:37.610Z,97182.91
2022-09-30T00:50:12.346Z,97161.91
2022-09-30T00:52:40.601Z,97182.19
2022-09-30T00:55:11.818Z,97182.25
2022-09-30T00:57:42.563Z,97179.00
2022-09-30T01:00:11.561Z,97181.50
2022-09-30T01:02:40.337Z,97173.97
2022-09-30T01:05:10.337Z,97190.91
2022-09-30T01:07:38.959Z,97186.06
2022-09-30T01:10:08.069Z,97192.16
2022-09-30T01:12:36.654Z,97205.75
2022-09-30T01:15:09.984Z,97213.50
2022-09-30T01:17:42.887Z,97208.47
2022-09-30T01:20:29.801Z,97203.47
2022-09-30T01:23:05.714Z,97210.13
2022-09-30T01:25:55.922Z,97212.63
2022-09-30T01:28:52.234Z,97207.41
2022-09-30T01:31:31.835Z,97217.59
2022-09-30T01:34:04.767Z,97214.94
2022-09-30T01:36:43.438Z,97205.56
2022-09-30T01:39:19.940Z,97205.53
2022-09-30T01:41:53.290Z,97226.75
2022-09-30T01:44:26.345Z,97223.38
2022-09-30T01:46:58.260Z,97215.72
2022-09-30T01:49:32.026Z,97231.47
2022-09-30T01:52:04.133Z,97212.94
2022-09-30T01:54:35.337Z,97223.81
2022-09-30T01:57:05.205Z,97226.47
2022-09-30T01:59:35.361Z,97229.97
2022-09-30T02:02:08.453Z,97226.47
2022-09-30T02:04:40.742Z,97213.88
2022-09-30T02:07:12.038Z,97218.88
2022-09-30T02:09:43.082Z,97217.16
2022-09-30T02:12:14.989Z,97220.47
2022-09-30T02:14:46.050Z,97216.06
2022-09-30T02:17:17.253Z,97228.84
2022-09-30T02:19:46.939Z,97221.31
2022-09-30T02:22:17.061Z,97228.25
2022-09-30T02:24:47.459Z,97218.09
2022-09-30T02:27:18.537Z,97230.69
2022-09-30T02:29:50.415Z,97234.72
2022-09-30T02:32:22.508Z,97233.00
2022-09-30T02:34:52.794Z,97232.22
2022-09-30T02:37:22.466Z,97235.66
2022-09-30T02:39:53.012Z,97231.28
2022-09-30T02:42:23.165Z,97241.25
2022-09-30T02:44:52.115Z,97230.97
2022-09-30T02:47:26.946Z,97243.09
2022-09-30T02:49:58.802Z,97239.50
2022-09-30T02:52:29.439Z,97252.31
2022-09-30T02:55:04.368Z,97255.81
2022-09-30T02:57:38.174Z,97254.97
2022-09-30T03:00:12.529Z,97260.91
2022-09-30T03:02:43.048Z,97262.63
2022-09-30T03:05:11.830Z,97264.38
2022-09-30T03:07:40.266Z,97263.47
2022-09-30T03:10:14.801Z,97261.09
2022-09-30T03:12:48.537Z,97259.38
2022-09-30T03:15:26.543Z,97254.53
2022-09-30T03:18:07.051Z,97274.50
2022-09-30T03:20:43.116Z,97276.16
2022-09-30T03:23:22.647Z,97279.59
2022-09-30T03:25:55.268Z,97284.38
2022-09-30T03:28:26.724Z,97276.69
2022-09-30T03:31:00.998Z,97286.88
2022-09-30T03:33:34.226Z,97279.28
2022-09-30T03:36:04.116Z,97278.94
2022-09-30T03:38:40.620Z,97286.69
2022-09-30T03:41:12.108Z,97289.31
2022-09-30T03:43:44.440Z,97294.97
2022-09-30T03:46:18.326Z,97289.91
2022-09-30T03:48:48.607Z,97292.41
2022-09-30T03:51:17.195Z,97284.94
2022-09-30T03:53:47.284Z,97298.66
2022-09-30T03:56:16.740Z,97302.84
2022-09-30T03:58:45.826Z,97309.91
2022-09-30T04:01:21.883Z,97305.69
2022-09-30T04:03:53.296Z,97296.72
2022-09-30T04:06:24.775Z,97297.66
2022-09-30T04:08:54.286Z,97312.88
2022-09-30T04:11:23.265Z,97316.16
2022-09-30T04:13:54.349Z,97310.47
2022-09-30T04:16:22.899Z,97324.63
2022-09-30T04:18:52.994Z,97318.59
2022-09-30T04:21:21.604Z,97318.59
2022-09-30T04:23:50.721Z,97318.91
2022-09-30T04:26:20.660Z,97322.41
2022-09-30T04:28:49.416Z,97325.56
2022-09-30T04:31:21.837Z,97326.09
2022-09-30T04:33:51.921Z,97321.16
2022-09-30T04:36:22.270Z,97333.03
2022-09-30T04:38:51.480Z,97330.63
2022-09-30T04:41:20.045Z,97334.28
2022-09-30T04:43:49.682Z,97331.13
2022-09-30T04:46:18.755Z,97348.72
2022-09-30T04:48:47.882Z,97335.34
2022-09-30T04:51:16.767Z,97353.22
2022-09-30T04:53:46.879Z,97361.66
2022-09-30T04:56:17.024Z,97363.28
2022-09-30T04:58:46.602Z,97355.78
2022-09-30T05:01:16.894Z,97371.19
2022-09-30T05:03:45.714Z,97363.44
2022-09-30T05:06:15.021Z,97368.53
2022-09-30T05:08:45.966Z,97352.59
2022-09-30T05:11:18.891Z,97366.97
2022-09-30T05:13:48.052Z,97366.13
2022-09-30T05:16:16.836Z,97369.91
2022-09-30T05:18:47.316Z,97361.47
2022-09-30T05:21:16.239Z,97337.75
2022-09-30T05:23:45.792Z,97356.38
2022-09-30T05:26:14.411Z,97370.84
2022-09-30T05:28:46.351Z,97362.38
2022-09-30T05:31:14.833Z,97367.59
2022-09-30T05:33:51.704Z,97367.28
2022-09-30T05:36:23.159Z,97361.06
2022-09-30T05:38:53.211Z,97373.94
2022-09-30T05:41:22.369Z,97377.63
2022-09-30T05:44:01.771Z,97381.94
2022-09-30T05:46:30.573Z,97383.69
2022-09-30T05:48:59.196Z,97391.19
2022-09-30T05:51:27.990Z,97409.81
2022-09-30T05:53:56.465Z,97411.78
2022-09-30T05:56:24.967Z,97427.06
2022-09-30T05:58:55.076Z,97429.59
2022-09-30T06:01:23.985Z,97425.97
2022-09-30T06:03:53.011Z,97419.94
2022-09-30T06:06:21.970Z,97423.25
2022-09-30T06:08:51.170Z,97425.88
2022-09-30T06:11:20.416Z,97429.97
2022-09-30T06:13:49.614Z,97438.31
2022-09-30T06:16:20.162Z,97424.88
2022-09-30T06:18:48.635Z,97447.97
2022-09-30T06:21:18.151Z,97428.72
2022-09-30T06:23:46.999Z,97452.19
2022-09-30T06:26:16.310Z,97452.13
2022-09-30T06:28:45.464Z,97436.75
2022-09-30T06:31:15.063Z,97431.03
2022-09-30T06:33:44.926Z,97433.94
2022-09-30T06:36:13.631Z,97425.00
2022-09-30T06:38:42.830Z,97444.91
2022-09-30T06:41:11.252Z,97450.56
2022-09-30T06:43:46.945Z,97433.84
2022-09-30T06:46:30.290Z,97450.13
2022-09-30T06:49:11.615Z,97437.72
2022-09-30T06:51:42.489Z,97451.94
2022-09-30T06:54:11.450Z,97456.25
2022-09-30T06:56:39.673Z,97456.22
2022-09-30T06:59:08.775Z,97457.59
2022-09-30T07:01:37.473Z,97453.38
2022-09-30T07:04:10.254Z,97475.34
2022-09-30T07:06:39.681Z,97477.50
2022-09-30T07:09:09.539Z,97474.91
2022-09-30T07:11:38.896Z,97484.75
2022-09-30T07:14:07.380Z,97483.81
2022-09-30T07:16:36.094Z,97492.19
2022-09-30T07:19:05.173Z,97499.66
2022-09-30T07:21:35.228Z,97500.38
2022-09-30T07:24:03.776Z,97494.38
2022-09-30T07:26:33.185Z,97484.59
2022-09-30T07:29:03.408Z,97497.03
2022-09-30T07:31:34.602Z,97501.97
2022-09-30T07:34:04.363Z,97505.16
2022-09-30T07:36:37.225Z,97512.13
2022-09-30T07:39:07.070Z,97519.06
2022-09-30T07:41:36.904Z,97492.19
2022-09-30T07:44:06.902Z,97496.31
2022-09-30T07:46:36.726Z,97507.25
2022-09-30T07:49:09.077Z,97529.78
2022-09-30T07:51:39.927Z,97530.91
2022-09-30T07:54:09.577Z,97543.09
2022-09-30T07:57:08.208Z,97531.84
2022-09-30T07:59:28.523Z,97537.38
2022-09-30T08:01:56.913Z,97528.41
2022-09-30T08:04:25.915Z,97537.63
2022-09-30T08:06:56.859Z,97527.53
2022-09-30T08:09:26.126Z,97532.63
2022-09-30T08:11:54.846Z,97531.34
2022-09-30T08:14:24.437Z,97537.91
2022-09-30T08:16:53.387Z,97532.25
2022-09-30T08:19:22.470Z,97543.88
2022-09-30T08:21:53.263Z,97539.25
2022-09-30T08:24:23.485Z,97537.50
2022-09-30T08:26:52.814Z,97550.03
2022-09-30T08:29:42.709Z,97551.97
2022-09-30T08:32:09.502Z,97549.41
2022-09-30T08:34:37.882Z,97553.97
2022-09-30T08:37:09.549Z,97557.03
2022-09-30T08:39:40.126Z,97548.41
2022-09-30T08:42:48.377Z,97563.56
2022-09-30T08:45:23.746Z,97560.44
2022-09-30T08:47:56.400Z,97568.47
2022-09-30T08:50:26.687Z,97573.44
2022-09-30T08:52:57.381Z,97562.78
2022-09-30T08:55:28.183Z,97573.06
2022-09-30T08:57:57.605Z,97578.19
2022-09-30T09:00:26.595Z,97582.84
2022-09-30T09:02:56.759Z,97578.38
2022-09-30T09:05:33.685Z,97576.16
2022-09-30T09:08:05.134Z,97587.75
2022-09-30T09:10:41.259Z,97581.78
2022-09-30T09:13:16.018Z,97583.78
2022-09-30T09:15:51.156Z,97584.28
2022-09-30T09:18:32.085Z,97580.44
2022-09-30T09:21:01.084Z,97593.72
2022-09-30T09:23:29.428Z,97598.19
2022-09-30T09:26:00.297Z,97603.50
2022-09-30T09:28:33.888Z,97599.91
2022-09-30T09:31:03.240Z,97599.13
2022-09-30T09:33:33.046Z,97592.56
2022-09-30T09:36:09.288Z,97599.06
2022-09-30T09:38:41.576Z,97585.34
2022-09-30T09:41:17.320Z,97591.38
2022-09-30T09:43:53.089Z,97592.69
2022-09-30T09:46:24.879Z,97586.00
2022-09-30T09:49:21.673Z,97586.47
2022-09-30T09:51:50.776Z,97588.31
2022-09-30T09:54:20.795Z,97585.06
2022-09-30T09:56:55.004Z,97585.72
2022-09-30T09:59:24.120Z,97587.31
2022-09-30T10:01:54.407Z,97586.88
2022-09-30T10:04:24.541Z,97576.09
2022-09-30T10:06:54.578Z,97591.34
2022-09-30T10:09:33.810Z,97572.59
2022-09-30T10:12:29.269Z,97588.91
2022-09-30T10:15:02.204Z,97593.00
2022-09-30T10:17:33.142Z,97591.34
2022-09-30T10:20:04.840Z,97585.59
2022-09-30T10:22:33.453Z,97568.94
2022-09-30T10:25:22.882Z,97577.75
2022-09-30T10:27:57.404Z,97572.53
2022-09-30T10:30:36.364Z,97579.47
2022-09-30T10:33:05.032Z,97574.59
2022-09-30T10:35:33.782Z,97581.13
2022-09-30T10:38:02.891Z,97573.91
2022-09-30T10:40:31.299Z,97574.09
2022-09-30T10:43:00.872Z,97576.00
2022-09-30T10:45:31.481Z,97576.44
2022-09-30T10:47:59.588Z,97578.25
2022-09-30T10:50:28.729Z,97588.28
2022-09-30T10:52:58.177Z,97574.75
2022-09-30T10:55:32.880Z,97573.13
2022-09-30T10:58:22.467Z,97579.53
2022-09-30T11:00:51.616Z,97573.75
2022-09-30T11:03:21.873Z,97581.47
2022-09-30T11:05:51.326Z,97569.84
2022-09-30T11:08:21.250Z,97576.34
2022-09-30T11:10:52.572Z,97577.94
2022-09-30T11:13:25.688Z,97572.44
2022-09-30T11:15:59.423Z,97578.97
2022-09-30T11:18:31.280Z,97581.84
2022-09-30T11:21:02.103Z,97587.34
2022-09-30T11:23:32.321Z,97588.81
2022-09-30T11:26:03.676Z,97579.72
2022-09-30T11:28:40.749Z,97571.84
2022-09-30T11:31:14.758Z,97580.56
2022-09-30T11:33:49.926Z,97586.50
2022-09-30T11:36:22.620Z,97576.88
2022-09-30T11:39:05.133Z,97580.88
2022-09-30T11:41:35.030Z,97569.38
2022-09-30T11:44:10.378Z,97581.56
2022-09-30T11:47:17.138Z,97577.19
2022-09-30T11:49:55.678Z,97570.19
2022-09-30T11:52:27.588Z,97559.56
2022-09-30T11:55:06.587Z,97569.34
2022-09-30T11:57:38.480Z,97555.94
2022-09-30T12:00:11.699Z,97559.56
2022-09-30T12:02:41.148Z,97559.06
2022-09-30T12:05:12.238Z,97554.03
2022-09-30T12:07:44.295Z,97551.31
2022-09-30T12:10:22.887Z,97557.09
2022-09-30T12:12:53.972Z,97552.38
2022-09-30T12:15:26.419Z,97554.44
2022-09-30T12:17:59.921Z,97552.50
2022-09-30T12:20:30.379Z,97551.06
2022-09-30T12:23:01.850Z,97556.34
2022-09-30T12:25:32.737Z,97560.22
2022-09-30T12:28:24.831Z,97557.09
2022-09-30T12:31:00.160Z,97555.53
2022-09-30T12:33:35.176Z,97569.44
2022-09-30T12:36:22.800Z,97567.72
2022-09-30T12:38:57.332Z,97557.28
2022-09-30T12:41:42.822Z,97560.91
2022-09-30T12:44:55.067Z,97565.78
2022-09-30T12:47:36.779Z,97565.94
2022-09-30T12:50:07.276Z,97553.59
2022-09-30T12:52:37.427Z,97555.63
2022-09-30T12:55:08.983Z,97547.75
2022-09-30T12:57:41.359Z,97567.00
2022-09-30T13:00:16.510Z,97560.25
2022-09-30T13:02:48.456Z,97558.94
2022-09-30T13:05:54.328Z,97562.06
2022-09-30T13:08:41.611Z,97568.34
2022-09-30T13:11:33.527Z,97553.47
2022-09-30T13:14:12.902Z,97563.56
2022-09-30T13:17:01.600Z,97566.84
2022-09-30T13:19:36.653Z,97561.22
2022-09-30T13:22:54.413Z,97578.06
2022-09-30T13:25:22.819Z,97568.00
2022-09-30T13:27:53.992Z,97566.84
2022-09-30T13:30:43.327Z,97557.47
2022-09-30T13:33:32.134Z,97563.13
2022-09-30T13:36:10.587Z,97554.75
2022-09-30T13:38:41.263Z,97562.50
2022-09-30T13:41:16.774Z,97558.09
2022-09-30T13:43:46.506Z,97560.75
2022-09-30T13:46:24.531Z,97560.59
2022-09-30T13:48:53.790Z,97564.84
2022-09-30T13:51:24.550Z,97555.00
2022-09-30T13:53:54.550Z,97561.63
2022-09-30T13:56:25.100Z,97562.75
2022-09-30T13:59:15.968Z,97575.13
2022-09-30T14:02:00.327Z,97573.19
2022-09-30T14:04:36.610Z,97578.84
2022-09-30T14:07:10.706Z,97577.19
2022-09-30T14:09:56.321Z,97586.25
2022-09-30T14:12:30.510Z,97584.88
2022-09-30T14:15:27.907Z,97582.38
2022-09-30T14:18:24.433Z,97586.47
2022-09-30T14:21:13.637Z,97584.41
2022-09-30T14:23:43.662Z,97568.47
2022-09-30T14:26:21.867Z,97571.75
2022-09-30T14:28:53.129Z,97548.06
2022-09-30T14:31:21.951Z,97570.84
2022-09-30T14:33:50.924Z,97570.09
2022-09-30T14:39:14.690Z,97579.97
2022-09-30T14:41:43.701Z,97569.22
2022-09-30T14:44:15.956Z,97575.75
2022-09-30T14:46:47.202Z,97580.78
2022-09-30T14:49:17.229Z,97582.31
2022-09-30T14:51:48.587Z,97580.41
2022-09-30T14:54:23.100Z,97602.31
2022-09-30T14:56:54.880Z,97587.22
2022-09-30T14:59:27.276Z,97588.34
2022-09-30T15:01:58.353Z,97594.50
2022-09-30T15:04:27.938Z,97589.31
2022-09-30T15:06:57.001Z,97583.78
2022-09-30T15:09:31.107Z,97595.31
2022-09-30T15:12:00.298Z,97594.13
2022-09-30T15:14:32.934Z,97600.63
2022-09-30T15:17:06.212Z,97603.16
2022-09-30T15:19:35.819Z,97599.91
2022-09-30T15:22:05.295Z,97590.28
2022-09-30T15:24:35.535Z,97604.94
2022-09-30T15:27:04.212Z,97601.75
2022-09-30T15:29:33.115Z,97602.03
2022-09-30T15:32:02.781Z,97587.75
2022-09-30T15:34:31.530Z,97601.38
2022-09-30T15:37:07.000Z,97604.78
2022-09-30T15:39:56.219Z,97592.44
2022-09-30T15:42:31.176Z,97599.19
2022-09-30T15:45:00.457Z,97610.38
2022-09-30T15:47:29.252Z,97600.44
2022-09-30T15:49:57.445Z,97601.63
2022-09-30T15:52:37.616Z,97613.69
2022-09-30T15:55:38.828Z,97611.41
2022-09-30T15:58:38.988Z,97604.00
2022-09-30T16:01:21.667Z,97599.97
2022-09-30T16:03:54.466Z,97593.53
2022-09-30T16:06:35.828Z,97602.31
2022-09-30T16:09:06.953Z,97602.59
2022-09-30T16:11:36.941Z,97589.97
2022-09-30T16:14:09.852Z,97604.84
2022-09-30T16:16:39.822Z,97606.72
2022-09-30T16:19:08.259Z,97611.34
2022-09-30T16:21:45.047Z,97615.00
2022-09-30T16:24:44.532Z,97618.03
2022-09-30T16:27:30.489Z,97615.78
2022-09-30T16:30:01.478Z,97600.16
2022-09-30T16:32:31.576Z,97622.22
2022-09-30T16:35:00.057Z,97633.31
2022-09-30T16:37:28.308Z,97605.31
2022-09-30T16:39:58.304Z,97621.47
2022-09-30T16:42:27.388Z,97614.19
2022-09-30T16:44:56.070Z,97619.56
2022-09-30T16:47:26.765Z,97620.81
2022-09-30T16:49:55.483Z,97623.09
2022-09-30T16:52:24.887Z,97607.53
2022-09-30T16:54:53.931Z,97620.66
2022-09-30T16:57:22.268Z,97615.91
2022-09-30T16:59:50.752Z,97620.19
2022-09-30T17:02:19.029Z,97621.41
2022-09-30T17:04:48.860Z,97625.88
2022-09-30T17:07:17.655Z,97631.13
2022-09-30T17:09:47.979Z,97636.38
2022-09-30T17:12:16.424Z,97621.44
2022-09-30T17:14:45.024Z,97625.38
2022-09-30T17:17:14.154Z,97642.31
2022-09-30T17:19:43.765Z,97639.94
2022-09-30T17:22:13.752Z,97644.03
2022-09-30T17:24:42.571Z,97649.66
2022-09-30T17:27:11.441Z,97647.63
2022-09-30T17:29:42.252Z,97653.00
2022-09-30T17:32:11.306Z,97649.94
2022-09-30T17:34:42.403Z,97658.53
2022-09-30T17:37:13.607Z,97655.94
2022-09-30T17:39:42.136Z,97649.41
2022-09-30T17:42:44.050Z,97661.44
2022-09-30T17:45:12.538Z,97648.06
2022-09-30T17:47:41.744Z,97665.41
2022-09-30T17:50:13.195Z,97661.84
2022-09-30T17:52:43.504Z,97653.75
2022-09-30T17:55:11.942Z,97658.84
2022-09-30T17:57:40.348Z,97669.41
2022-09-30T18:00:09.787Z,97660.41
2022-09-30T18:02:38.730Z,97650.75
2022-09-30T18:05:07.776Z,97667.00
2022-09-30T18:07:36.335Z,97662.78
2022-09-30T18:10:08.437Z,97665.72
2022-09-30T18:12:36.913Z,97662.59
2022-09-30T18:15:05.794Z,97667.81
2022-09-30T18:17:34.299Z,97681.59
2022-09-30T18:20:03.147Z,97671.63
2022-09-30T18:22:31.392Z,97674.97
2022-09-30T18:25:25.742Z,97669.22
2022-09-30T18:27:57.832Z,97676.91
2022-09-30T18:30:27.093Z,97678.72
2022-09-30T18:32:56.285Z,97684.06
2022-09-30T18:35:25.424Z,97668.03
2022-09-30T18:37:54.056Z,97663.19
2022-09-30T18:40:22.988Z,97675.09
2022-09-30T18:42:58.917Z,97670.19
2022-09-30T18:45:27.437Z,97671.97
2022-09-30T18:47:56.824Z,97673.63
2022-09-30T18:50:25.610Z,97679.78
2022-09-30T18:52:54.314Z,97674.94
2022-09-30T18:55:22.808Z,97680.16
2022-09-30T18:57:51.625Z,97686.97
2022-09-30T19:00:21.803Z,97687.00
2022-09-30T19:02:50.982Z,97667.72
2022-09-30T19:05:19.631Z,97661.97
2022-09-30T19:07:48.079Z,97679.59
2022-09-30T19:10:16.873Z,97671.84
2022-09-30T19:12:45.997Z,97671.91
2022-09-30T19:15:16.601Z,97669.44
2022-09-30T19:17:46.951Z,97679.78
2022-09-30T19:20:17.384Z,97674.72
2022-09-30T19:22:51.483Z,97682.53
2022-09-30T19:25:19.550Z,97685.22
2022-09-30T19:27:49.590Z,97684.63
2022-09-30T19:30:20.010Z,97691.47
2022-09-30T19:32:51.766Z,97684.47
2022-09-30T19:35:31.079Z,97674.63
2022-09-30T19:38:04.506Z,97693.44
2022-09-30T19:43:07.138Z,97687.75
2022-09-30T19:45:35.722Z,97697.09
2022-09-30T19:48:05.732Z,97686.19
2022-09-30T19:50:34.872Z,97680.34
2022-09-30T19:53:03.494Z,97700.81
2022-09-30T19:55:40.173Z,97709.31
2022-09-30T19:58:14.308Z,97705.09
2022-09-30T20:00:47.072Z,97701.91
2022-09-30T20:03:17.110Z,97710.31
2022-09-30T20:05:45.763Z,97712.06
2022-09-30T20:08:14.116Z,97710.44
2022-09-30T20:10:42.546Z,97708.03
2022-09-30T20:13:11.116Z,97712.16
2022-09-30T20:15:51.373Z,97697.06
2022-09-30T20:18:21.311Z,97719.94
2022-09-30T20:20:49.748Z,97712.25
2022-09-30T20:23:19.513Z,97726.53
2022-09-30T20:25:48.195Z,97725.59
2022-09-30T20:28:16.944Z,97722.78
2022-09-30T20:30:46.192Z,97717.03
2022-09-30T20:33:17.560Z,97715.88
2022-09-30T20:35:48.896Z,97702.53
2022-09-30T20:38:25.040Z,97697.47
2022-09-30T20:40:56.983Z,97704.47
2022-09-30T20:43:28.278Z,97675.72
2022-09-30T20:45:59.911Z,97684.31
2022-09-30T20:48:32.696Z,97685.94
2022-09-30T20:51:07.392Z,97691.19
2022-09-30T20:53:39.774Z,97681.94
2022-09-30T20:56:09.633Z,97677.81
2022-09-30T20:58:38.530Z,97678.66
2022-09-30T21:01:08.881Z,97679.44
2022-09-30T21:03:37.610Z,97677.81
2022-09-30T21:06:08.290Z,97668.72
2022-09-30T21:08:39.049Z,97678.00
2022-09-30T21:11:07.705Z,97677.22
2022-09-30T21:13:38.451Z,97676.50
2022-09-30T21:16:08.759Z,97675.59
2022-09-30T21:18:37.294Z,97675.69
2022-09-30T21:21:07.473Z,97671.44
2022-09-30T21:23:38.357Z,97677.50
2022-09-30T21:26:07.715Z,97671.34
2022-09-30T21:28:37.262Z,97684.03
2022-09-30T21:31:06.377Z,97689.09
2022-09-30T21:33:35.459Z,97690.91
2022-09-30T21:36:05.034Z,97691.06
2022-09-30T21:38:36.065Z,97696.31
2022-09-30T21:41:06.114Z,97702.25
2022-09-30T21:43:35.134Z,97698.09
2022-09-30T21:46:04.831Z,97707.50
2022-09-30T21:48:34.231Z,97714.31
2022-09-30T21:51:11.911Z,97719.41
2022-09-30T21:53:41.927Z,97717.81
2022-09-30T21:56:15.061Z,97718.72
2022-09-30T21:58:44.545Z,97720.44
2022-09-30T22:01:13.629Z,97739.16
2022-09-30T22:03:43.059Z,97730.72
2022-09-30T22:06:12.024Z,97740.03
2022-09-30T22:08:43.295Z,97742.59
2022-09-30T22:11:12.665Z,97736.84
2022-09-30T22:13:41.842Z,97762.94
2022-09-30T22:16:11.030Z,97764.53
2022-09-30T22:18:40.538Z,97771.31
2022-09-30T22:21:11.038Z,97767.03
2022-09-30T22:23:40.020Z,97752.59
2022-09-30T22:26:11.225Z,97770.47
2022-09-30T22:28:41.548Z,97762.06
2022-09-30T22:31:16.638Z,97749.47
2022-09-30T22:34:04.191Z,97738.56
2022-09-30T22:36:49.751Z,97758.06
2022-09-30T22:39:19.020Z,97738.50
2022-09-30T22:41:50.722Z,97732.50
2022-09-30T22:44:19.303Z,97746.88
2022-09-30T22:46:48.470Z,97750.19
2022-09-30T22:49:17.140Z,97735.19
2022-09-30T22:51:46.877Z,97749.56
2022-09-30T22:54:17.136Z,97752.19
2022-09-30T22:56:46.135Z,97742.88
2022-09-30T22:59:16.579Z,97752.13
2022-09-30T23:01:50.472Z,97749.69
2022-09-30T23:04:20.303Z,97757.38
2022-09-30T23:06:52.144Z,97759.09
2022-09-30T23:09:22.389Z,97761.69
2022-09-30T23:11:54.772Z,97753.94
2022-09-30T23:14:25.999Z,97747.09
2022-09-30T23:16:54.673Z,97749.56
2022-09-30T23:19:24.918Z,97743.59
2022-09-30T23:21:54.112Z,97726.53
2022-09-30T23:24:23.417Z,97742.69
2022-09-30T23:26:52.493Z,97743.63
2022-09-30T23:29:20.803Z,97756.38
2022-09-30T23:31:51.121Z,97742.09
2022-09-30T23:34:20.408Z,97748.00
2022-09-30T23:36:49.088Z,97753.00
2022-09-30T23:39:19.754Z,97748.03
2022-09-30T23:41:48.245Z,97753.22
2022-09-30T23:44:19.191Z,97738.84
2022-09-30T23:47:02.216Z,97746.31
2022-09-30T23:49:35.484Z,97749.75
2022-09-30T23:52:09.218Z,97754.09
2022-09-30T23:54:41.245Z,97742.38
2022-09-30T23:57:10.930Z,97745.75
2022-09-30T23:59:39.725Z,97743.31
